sensor_id;sensor_type;location;lat;lon;timestamp;pressure;altitude;pressure_sealevel;temperature;humidity
4705;BME280;2366;51.332;6.610;2023-07-31T00:00:23;100955.56;;;21.04;74.14
4705;BME280;2366;51.332;6.610;2023-07-31T00:02:49;100955.88;;;21.01;74.38
4705;BME280;2366;51.332;6.610;2023-07-31T00:05:15;100949.50;;;21.02;73.10
4705;BME280;2366;51.332;6.610;2023-07-31T00:07:41;100944.94;;;21.02;74.46
4705;BME280;2366;51.332;6.610;2023-07-31T00:10:06;100956.78;;;21.09;74.25
4705;BME280;2366;51.332;6.610;2023-07-31T00:12:32;100947.84;;;21.09;74.12
4705;BME280;2366;51.332;6.610;2023-07-31T00:14:58;100950.94;;;20.96;73.76
4705;BME280;2366;51.332;6.610;2023-07-31T00:17:23;100949.09;;;20.97;74.30
4705;BME280;2366;51.332;6.610;2023-07-31T00:19:48;100943.94;;;20.85;73.70
4705;BME280;2366;51.332;6.610;2023-07-31T00:22:15;100954.25;;;20.90;74.71
4705;BME280;2366;51.332;6.610;2023-07-31T00:24:41;100944.06;;;20.76;75.05
4705;BME280;2366;51.332;6.610;2023-07-31T00:27:06;100948.50;;;20.85;74.76
4705;BME280;2366;51.332;6.610;2023-07-31T00:29:32;100950.81;;;20.98;74.01
4705;BME280;2366;51.332;6.610;2023-07-31T00:31:57;100944.09;;;20.84;74.48
4705;BME280;2366;51.332;6.610;2023-07-31T00:34:22;100942.97;;;20.86;73.52
4705;BME280;2366;51.332;6.610;2023-07-31T00:36:48;100943.94;;;20.85;74.44
4705;BME280;2366;51.332;6.610;2023-07-31T00:39:13;100938.63;;;20.93;74.28
4705;BME280;2366;51.332;6.610;2023-07-31T00:41:39;100949.31;;;21.03;73.43
4705;BME280;2366;51.332;6.610;2023-07-31T00:44:04;100942.03;;;20.96;73.85
4705;BME280;2366;51.332;6.610;2023-07-31T00:46:29;100948.78;;;21.00;73.83
4705;BME280;2366;51.332;6.610;2023-07-31T00:48:55;100944.03;;;20.93;72.80
4705;BME280;2366;51.332;6.610;2023-07-31T00:51:21;100944.31;;;20.90;73.33
4705;BME280;2366;51.332;6.610;2023-07-31T00:53:47;100940.16;;;20.96;73.12
4705;BME280;2366;51.332;6.610;2023-07-31T00:56:12;100942.75;;;20.80;72.76
4705;BME280;2366;51.332;6.610;2023-07-31T00:58:38;100937.59;;;20.86;73.51
4705;BME280;2366;51.332;6.610;2023-07-31T01:01:04;100938.63;;;20.93;72.90
4705;BME280;2366;51.332;6.610;2023-07-31T01:03:29;100935.56;;;20.88;73.01
4705;BME280;2366;51.332;6.610;2023-07-31T01:08:48;100927.50;;;20.88;72.54
4705;BME280;2366;51.332;6.610;2023-07-31T01:11:20;100930.13;;;20.80;73.09
4705;BME280;2366;51.332;6.610;2023-07-31T01:13:47;100933.25;;;20.93;73.14
4705;BME280;2366;51.332;6.610;2023-07-31T01:16:13;100926.56;;;20.98;72.65
4705;BME280;2366;51.332;6.610;2023-07-31T01:18:38;100929.31;;;20.88;72.55
4705;BME280;2366;51.332;6.610;2023-07-31T01:26:34;100941.13;;;20.87;70.64
4705;BME280;2366;51.332;6.610;2023-07-31T01:29:05;100944.75;;;20.78;71.38
4705;BME280;2366;51.332;6.610;2023-07-31T01:31:32;100943.47;;;20.90;71.97
4705;BME280;2366;51.332;6.610;2023-07-31T01:34:00;100941.41;;;21.02;71.70
4705;BME280;2366;51.332;6.610;2023-07-31T01:36:26;100945.78;;;21.03;71.43
4705;BME280;2366;51.332;6.610;2023-07-31T01:38:52;100938.63;;;20.93;71.09
4705;BME280;2366;51.332;6.610;2023-07-31T01:41:18;100926.81;;;20.86;71.18
4705;BME280;2366;51.332;6.610;2023-07-31T01:43:44;100927.66;;;20.87;71.83
4705;BME280;2366;51.332;6.610;2023-07-31T01:46:10;100923.09;;;20.87;71.44
4705;BME280;2366;51.332;6.610;2023-07-31T01:48:35;100920.47;;;20.96;71.44
4705;BME280;2366;51.332;6.610;2023-07-31T01:51:02;100916.13;;;21.03;71.13
4705;BME280;2366;51.332;6.610;2023-07-31T01:53:28;100912.47;;;21.12;71.10
4705;BME280;2366;51.332;6.610;2023-07-31T01:55:53;100904.59;;;20.92;70.32
4705;BME280;2366;51.332;6.610;2023-07-31T01:58:19;100914.31;;;20.85;70.78
4705;BME280;2366;51.332;6.610;2023-07-31T02:00:44;100902.59;;;20.95;71.11
4705;BME280;2366;51.332;6.610;2023-07-31T02:03:10;100912.94;;;20.81;69.74
4705;BME280;2366;51.332;6.610;2023-07-31T02:05:35;100907.47;;;20.91;70.53
4705;BME280;2366;51.332;6.610;2023-07-31T02:08:00;100912.75;;;21.01;70.13
4705;BME280;2366;51.332;6.610;2023-07-31T02:10:26;100913.06;;;20.98;70.37
4705;BME280;2366;51.332;6.610;2023-07-31T02:12:51;100913.91;;;20.98;69.70
4705;BME280;2366;51.332;6.610;2023-07-31T02:15:16;100905.91;;;21.06;69.88
4705;BME280;2366;51.332;6.610;2023-07-31T02:17:42;100907.34;;;21.01;69.15
4705;BME280;2366;51.332;6.610;2023-07-31T02:20:08;100905.69;;;21.00;69.37
4705;BME280;2366;51.332;6.610;2023-07-31T02:22:33;100905.34;;;21.03;69.21
4705;BME280;2366;51.332;6.610;2023-07-31T02:24:59;100908.16;;;20.93;68.15
4705;BME280;2366;51.332;6.610;2023-07-31T02:27:24;100901.28;;;20.99;69.01
4705;BME280;2366;51.332;6.610;2023-07-31T02:29:52;100898.66;;;21.07;68.65
4705;BME280;2366;51.332;6.610;2023-07-31T02:32:17;100897.13;;;21.04;68.82
4705;BME280;2366;51.332;6.610;2023-07-31T02:34:43;100896.91;;;20.98;68.98
4705;BME280;2366;51.332;6.610;2023-07-31T02:37:08;100893.53;;;20.96;69.15
4705;BME280;2366;51.332;6.610;2023-07-31T02:39:33;100887.44;;;20.93;68.64
4705;BME280;2366;51.332;6.610;2023-07-31T02:41:59;100898.59;;;20.99;69.20
4705;BME280;2366;51.332;6.610;2023-07-31T02:44:25;100886.34;;;21.04;69.03
4705;BME280;2366;51.332;6.610;2023-07-31T02:46:51;100885.81;;;21.01;69.14
4705;BME280;2366;51.332;6.610;2023-07-31T02:49:16;100876.03;;;21.00;69.00
4705;BME280;2366;51.332;6.610;2023-07-31T02:51:41;100879.22;;;20.95;69.61
4705;BME280;2366;51.332;6.610;2023-07-31T02:54:07;100873.97;;;20.93;69.24
4705;BME280;2366;51.332;6.610;2023-07-31T02:56:32;100881.63;;;20.80;69.68
4705;BME280;2366;51.332;6.610;2023-07-31T02:58:57;100877.84;;;20.91;70.21
4705;BME280;2366;51.332;6.610;2023-07-31T03:01:23;100874.19;;;21.00;70.05
4705;BME280;2366;51.332;6.610;2023-07-31T03:03:48;100872.81;;;20.96;69.71
4705;BME280;2366;51.332;6.610;2023-07-31T03:06:14;100861.50;;;20.92;69.96
4705;BME280;2366;51.332;6.610;2023-07-31T03:08:39;100860.03;;;20.98;69.78
4705;BME280;2366;51.332;6.610;2023-07-31T03:11:04;100868.94;;;20.99;70.04
4705;BME280;2366;51.332;6.610;2023-07-31T03:13:30;100866.47;;;21.05;69.90
4705;BME280;2366;51.332;6.610;2023-07-31T03:15:55;100867.63;;;21.03;69.71
4705;BME280;2366;51.332;6.610;2023-07-31T03:18:20;100870.38;;;21.11;69.57
4705;BME280;2366;51.332;6.610;2023-07-31T03:20:46;100872.72;;;21.06;69.53
4705;BME280;2366;51.332;6.610;2023-07-31T03:23:11;100868.66;;;21.02;69.55
4705;BME280;2366;51.332;6.610;2023-07-31T03:25:37;100869.00;;;21.07;68.49
4705;BME280;2366;51.332;6.610;2023-07-31T03:28:02;100865.47;;;21.06;69.12
4705;BME280;2366;51.332;6.610;2023-07-31T03:30:28;100874.41;;;21.07;68.22
4705;BME280;2366;51.332;6.610;2023-07-31T03:32:53;100870.06;;;21.14;69.46
4705;BME280;2366;51.332;6.610;2023-07-31T03:35:18;100868.53;;;21.11;69.17
4705;BME280;2366;51.332;6.610;2023-07-31T03:37:44;100866.63;;;21.04;69.14
4705;BME280;2366;51.332;6.610;2023-07-31T03:40:09;100873.72;;;21.05;69.70
4705;BME280;2366;51.332;6.610;2023-07-31T03:42:35;100865.53;;;21.15;69.59
4705;BME280;2366;51.332;6.610;2023-07-31T03:45:00;100855.63;;;21.23;69.47
4705;BME280;2366;51.332;6.610;2023-07-31T03:47:26;100856.69;;;21.30;68.88
4705;BME280;2366;51.332;6.610;2023-07-31T03:49:51;100848.09;;;21.35;68.71
4705;BME280;2366;51.332;6.610;2023-07-31T03:52:17;100848.78;;;21.37;68.74
4705;BME280;2366;51.332;6.610;2023-07-31T03:54:42;100851.59;;;21.27;68.92
4705;BME280;2366;51.332;6.610;2023-07-31T03:57:10;100847.16;;;21.18;68.63
4705;BME280;2366;51.332;6.610;2023-07-31T03:59:35;100849.88;;;21.18;69.06
4705;BME280;2366;51.332;6.610;2023-07-31T04:02:00;100851.81;;;21.34;68.49
4705;BME280;2366;51.332;6.610;2023-07-31T04:04:26;100852.75;;;21.43;68.53
4705;BME280;2366;51.332;6.610;2023-07-31T04:06:51;100848.19;;;21.43;67.84
4705;BME280;2366;51.332;6.610;2023-07-31T04:09:17;100844.09;;;21.39;68.35
4705;BME280;2366;51.332;6.610;2023-07-31T04:11:42;100847.34;;;21.43;67.97
4705;BME280;2366;51.332;6.610;2023-07-31T04:14:07;100846.56;;;21.32;67.63
4705;BME280;2366;51.332;6.610;2023-07-31T04:16:33;100844.22;;;21.38;67.88
4705;BME280;2366;51.332;6.610;2023-07-31T04:18:58;100837.81;;;21.30;68.40
4705;BME280;2366;51.332;6.610;2023-07-31T04:21:23;100836.47;;;21.34;68.59
4705;BME280;2366;51.332;6.610;2023-07-31T04:23:49;100833.16;;;21.41;68.38
4705;BME280;2366;51.332;6.610;2023-07-31T04:26:14;100828.00;;;21.21;68.61
4705;BME280;2366;51.332;6.610;2023-07-31T04:28:39;100822.66;;;21.38;68.87
4705;BME280;2366;51.332;6.610;2023-07-31T04:31:05;100823.69;;;21.37;68.76
4705;BME280;2366;51.332;6.610;2023-07-31T04:33:30;100826.75;;;21.42;68.64
4705;BME280;2366;51.332;6.610;2023-07-31T04:35:56;100820.88;;;21.46;68.55
4705;BME280;2366;51.332;6.610;2023-07-31T04:38:22;100819.22;;;21.45;67.37
4705;BME280;2366;51.332;6.610;2023-07-31T04:40:47;100814.66;;;21.46;68.30
4705;BME280;2366;51.332;6.610;2023-07-31T04:43:13;100814.84;;;21.52;68.52
4705;BME280;2366;51.332;6.610;2023-07-31T04:45:38;100810.66;;;21.58;68.53
4705;BME280;2366;51.332;6.610;2023-07-31T04:48:04;100809.09;;;21.56;68.25
4705;BME280;2366;51.332;6.610;2023-07-31T04:50:29;100805.41;;;21.57;68.77
4705;BME280;2366;51.332;6.610;2023-07-31T04:52:55;100807.66;;;21.69;68.53
4705;BME280;2366;51.332;6.610;2023-07-31T04:55:21;100803.78;;;21.72;67.67
4705;BME280;2366;51.332;6.610;2023-07-31T04:57:46;100799.72;;;21.68;66.54
4705;BME280;2366;51.332;6.610;2023-07-31T05:00:12;100785.19;;;21.52;67.82
4705;BME280;2366;51.332;6.610;2023-07-31T05:02:37;100801.50;;;21.43;68.25
4705;BME280;2366;51.332;6.610;2023-07-31T05:05:03;100789.09;;;21.66;69.08
4705;BME280;2366;51.332;6.610;2023-07-31T05:07:28;100792.19;;;21.80;68.07
4705;BME280;2366;51.332;6.610;2023-07-31T05:09:53;100786.09;;;21.78;67.18
4705;BME280;2366;51.332;6.610;2023-07-31T05:12:19;100791.78;;;21.66;68.52
4705;BME280;2366;51.332;6.610;2023-07-31T05:14:44;100786.88;;;21.62;68.43
4705;BME280;2366;51.332;6.610;2023-07-31T05:17:09;100783.84;;;21.57;68.50
4705;BME280;2366;51.332;6.610;2023-07-31T05:19:35;100779.78;;;21.52;68.81
4705;BME280;2366;51.332;6.610;2023-07-31T05:22:00;100774.41;;;21.61;68.62
4705;BME280;2366;51.332;6.610;2023-07-31T05:24:25;100780.34;;;21.64;68.14
4705;BME280;2366;51.332;6.610;2023-07-31T05:26:51;100774.25;;;21.70;68.38
4705;BME280;2366;51.332;6.610;2023-07-31T05:29:16;100774.28;;;21.79;68.45
4705;BME280;2366;51.332;6.610;2023-07-31T05:31:41;100768.38;;;21.83;67.70
4705;BME280;2366;51.332;6.610;2023-07-31T05:34:07;100761.16;;;21.92;67.87
4705;BME280;2366;51.332;6.610;2023-07-31T05:36:32;100767.25;;;22.02;67.33
4705;BME280;2366;51.332;6.610;2023-07-31T05:38:58;100764.50;;;21.86;66.21
4705;BME280;2366;51.332;6.610;2023-07-31T05:41:23;100762.16;;;21.83;66.83
4705;BME280;2366;51.332;6.610;2023-07-31T05:43:48;100753.41;;;21.97;67.20
4705;BME280;2366;51.332;6.610;2023-07-31T05:46:15;100756.44;;;21.94;67.24
4705;BME280;2366;51.332;6.610;2023-07-31T05:48:40;100754.91;;;21.91;66.74
4705;BME280;2366;51.332;6.610;2023-07-31T05:51:06;100744.44;;;21.97;66.13
4705;BME280;2366;51.332;6.610;2023-07-31T05:53:34;100743.28;;;21.91;66.74
4705;BME280;2366;51.332;6.610;2023-07-31T05:56:01;100741.06;;;21.94;67.19
4705;BME280;2366;51.332;6.610;2023-07-31T05:58:26;100738.22;;;22.04;66.42
4705;BME280;2366;51.332;6.610;2023-07-31T06:00:51;100736.88;;;22.00;66.30
4705;BME280;2366;51.332;6.610;2023-07-31T06:03:17;100739.91;;;21.89;65.96
4705;BME280;2366;51.332;6.610;2023-07-31T06:05:42;100733.16;;;21.85;67.34
4705;BME280;2366;51.332;6.610;2023-07-31T06:08:08;100732.97;;;21.94;67.62
4705;BME280;2366;51.332;6.610;2023-07-31T06:10:33;100744.63;;;21.95;68.00
4705;BME280;2366;51.332;6.610;2023-07-31T06:12:59;100736.19;;;21.90;67.75
4705;BME280;2366;51.332;6.610;2023-07-31T06:15:25;100739.22;;;21.79;68.96
4705;BME280;2366;51.332;6.610;2023-07-31T06:17:50;100741.38;;;21.75;69.22
4705;BME280;2366;51.332;6.610;2023-07-31T06:20:15;100742.56;;;21.64;69.62
4705;BME280;2366;51.332;6.610;2023-07-31T06:22:41;100743.03;;;21.60;70.37
4705;BME280;2366;51.332;6.610;2023-07-31T06:25:06;100743.88;;;21.52;71.08
4705;BME280;2366;51.332;6.610;2023-07-31T06:27:32;100741.50;;;21.49;71.75
4705;BME280;2366;51.332;6.610;2023-07-31T06:29:57;100748.63;;;21.58;70.77
4705;BME280;2366;51.332;6.610;2023-07-31T06:32:23;100748.94;;;21.55;71.77
4705;BME280;2366;51.332;6.610;2023-07-31T06:34:48;100752.97;;;21.51;71.20
4705;BME280;2366;51.332;6.610;2023-07-31T06:37:14;100747.91;;;21.48;72.08
4705;BME280;2366;51.332;6.610;2023-07-31T06:39:39;100753.69;;;21.61;72.03
4705;BME280;2366;51.332;6.610;2023-07-31T06:42:04;100753.19;;;21.66;71.90
4705;BME280;2366;51.332;6.610;2023-07-31T06:44:30;100747.78;;;21.66;70.20
4705;BME280;2366;51.332;6.610;2023-07-31T06:46:55;100752.50;;;21.64;71.88
4705;BME280;2366;51.332;6.610;2023-07-31T06:49:21;100743.88;;;21.52;71.38
4705;BME280;2366;51.332;6.610;2023-07-31T06:51:46;100752.31;;;21.57;71.90
4705;BME280;2366;51.332;6.610;2023-07-31T06:54:11;100749.47;;;21.59;72.54
4705;BME280;2366;51.332;6.610;2023-07-31T06:56:37;100738.69;;;21.75;71.83
4705;BME280;2366;51.332;6.610;2023-07-31T06:59:03;100735.13;;;21.66;70.70
4705;BME280;2366;51.332;6.610;2023-07-31T07:01:28;100733.47;;;21.65;71.97
4705;BME280;2366;51.332;6.610;2023-07-31T07:03:54;100744.25;;;21.65;72.16
4705;BME280;2366;51.332;6.610;2023-07-31T07:06:19;100744.59;;;21.70;71.92
4705;BME280;2366;51.332;6.610;2023-07-31T07:08:45;100742.75;;;21.71;71.83
4705;BME280;2366;51.332;6.610;2023-07-31T07:11:11;100736.59;;;21.44;72.44
4705;BME280;2366;51.332;6.610;2023-07-31T07:13:36;100737.03;;;21.31;72.20
4705;BME280;2366;51.332;6.610;2023-07-31T07:16:01;100726.72;;;21.19;72.75
4705;BME280;2366;51.332;6.610;2023-07-31T07:18:27;100732.78;;;21.12;74.36
4705;BME280;2366;51.332;6.610;2023-07-31T07:20:54;100728.75;;;21.17;73.44
4705;BME280;2366;51.332;6.610;2023-07-31T07:23:20;100729.44;;;21.27;74.38
4705;BME280;2366;51.332;6.610;2023-07-31T07:25:46;100745.50;;;21.37;74.14
4705;BME280;2366;51.332;6.610;2023-07-31T07:28:12;100734.72;;;21.37;73.99
4705;BME280;2366;51.332;6.610;2023-07-31T07:30:38;100730.66;;;21.32;73.17
4705;BME280;2366;51.332;6.610;2023-07-31T07:33:03;100727.84;;;21.42;74.16
4705;BME280;2366;51.332;6.610;2023-07-31T07:35:28;100736.59;;;21.44;74.06
4705;BME280;2366;51.332;6.610;2023-07-31T07:37:54;100725.09;;;21.34;75.08
4705;BME280;2366;51.332;6.610;2023-07-31T07:40:20;100720.88;;;21.31;74.73
4705;BME280;2366;51.332;6.610;2023-07-31T07:42:46;100730.97;;;21.29;74.90
4705;BME280;2366;51.332;6.610;2023-07-31T07:45:12;100724.53;;;21.22;74.94
4705;BME280;2366;51.332;6.610;2023-07-31T07:47:40;100724.88;;;21.19;74.84
4705;BME280;2366;51.332;6.610;2023-07-31T07:50:06;100714.06;;;21.11;74.13
4705;BME280;2366;51.332;6.610;2023-07-31T07:52:32;100720.19;;;21.21;75.89
4705;BME280;2366;51.332;6.610;2023-07-31T07:54:57;100717.22;;;21.41;75.23
4705;BME280;2366;51.332;6.610;2023-07-31T07:57:23;100722.63;;;21.49;75.43
4705;BME280;2366;51.332;6.610;2023-07-31T07:59:48;100713.84;;;21.47;74.57
4705;BME280;2366;51.332;6.610;2023-07-31T08:02:13;100715.59;;;21.64;73.78
4705;BME280;2366;51.332;6.610;2023-07-31T08:04:39;100710.88;;;21.58;74.08
4705;BME280;2366;51.332;6.610;2023-07-31T08:07:04;100704.13;;;21.70;73.38
4705;BME280;2366;51.332;6.610;2023-07-31T08:09:29;100701.06;;;21.49;73.04
4705;BME280;2366;51.332;6.610;2023-07-31T08:11:55;100703.03;;;21.39;74.10
4705;BME280;2366;51.332;6.610;2023-07-31T08:14:22;100703.41;;;21.44;73.51
4705;BME280;2366;51.332;6.610;2023-07-31T08:16:49;100690.56;;;21.38;72.01
4705;BME280;2366;51.332;6.610;2023-07-31T08:19:15;100696.53;;;21.07;74.20
4705;BME280;2366;51.332;6.610;2023-07-31T08:21:40;100695.06;;;21.12;72.71
4705;BME280;2366;51.332;6.610;2023-07-31T08:24:05;100692.38;;;21.29;74.67
4705;BME280;2366;51.332;6.610;2023-07-31T08:26:31;100700.03;;;21.42;73.42
4705;BME280;2366;51.332;6.610;2023-07-31T08:28:56;100686.22;;;21.53;73.37
4705;BME280;2366;51.332;6.610;2023-07-31T08:31:22;100688.94;;;21.61;72.95
4705;BME280;2366;51.332;6.610;2023-07-31T08:33:48;100690.63;;;21.54;72.49
4705;BME280;2366;51.332;6.610;2023-07-31T08:36:13;100684.91;;;21.57;72.17
4705;BME280;2366;51.332;6.610;2023-07-31T08:38:38;100690.13;;;21.75;72.59
4705;BME280;2366;51.332;6.610;2023-07-31T08:41:04;100682.53;;;21.70;72.24
4705;BME280;2366;51.332;6.610;2023-07-31T08:43:30;100677.84;;;21.64;70.56
4705;BME280;2366;51.332;6.610;2023-07-31T08:45:56;100679.16;;;21.52;71.07
4705;BME280;2366;51.332;6.610;2023-07-31T08:48:23;100676.06;;;21.30;70.93
4705;BME280;2366;51.332;6.610;2023-07-31T08:50:49;100677.72;;;21.31;70.21
4705;BME280;2366;51.332;6.610;2023-07-31T08:53:15;100684.88;;;21.49;72.08
4705;BME280;2366;51.332;6.610;2023-07-31T08:55:42;100683.31;;;21.38;72.27
4705;BME280;2366;51.332;6.610;2023-07-31T08:58:08;100687.38;;;21.34;72.96
4705;BME280;2366;51.332;6.610;2023-07-31T09:00:33;100690.56;;;21.38;72.67
4705;BME280;2366;51.332;6.610;2023-07-31T09:03:07;100694.59;;;21.25;73.89
4705;BME280;2366;51.332;6.610;2023-07-31T09:05:35;100694.94;;;21.39;73.26
4705;BME280;2366;51.332;6.610;2023-07-31T09:08:03;100690.09;;;21.42;72.58
4705;BME280;2366;51.332;6.610;2023-07-31T09:10:29;100694.34;;;21.45;73.80
4705;BME280;2366;51.332;6.610;2023-07-31T09:12:55;100696.72;;;21.64;73.63
4705;BME280;2366;51.332;6.610;2023-07-31T09:15:21;100691.66;;;21.69;73.55
4705;BME280;2366;51.332;6.610;2023-07-31T09:17:58;100698.56;;;21.72;73.73
4705;BME280;2366;51.332;6.610;2023-07-31T09:20:24;100682.72;;;21.85;73.19
4705;BME280;2366;51.332;6.610;2023-07-31T09:22:49;100686.75;;;21.81;72.06
4705;BME280;2366;51.332;6.610;2023-07-31T09:30:17;100680.03;;;21.69;74.78
4705;BME280;2366;51.332;6.610;2023-07-31T09:32:47;100677.69;;;21.90;75.09
4705;BME280;2366;51.332;6.610;2023-07-31T09:35:34;100681.38;;;22.06;73.74
4705;BME280;2366;51.332;6.610;2023-07-31T09:38:10;100676.00;;;21.98;72.91
4705;BME280;2366;51.332;6.610;2023-07-31T09:40:38;100681.53;;;21.96;72.73
4705;BME280;2366;51.332;6.610;2023-07-31T09:43:06;100672.94;;;21.76;74.05
4705;BME280;2366;51.332;6.610;2023-07-31T09:45:42;100664.00;;;21.92;72.12
4705;BME280;2366;51.332;6.610;2023-07-31T09:48:13;100672.78;;;21.69;73.52
4705;BME280;2366;51.332;6.610;2023-07-31T09:50:42;100661.66;;;21.64;74.73
4705;BME280;2366;51.332;6.610;2023-07-31T09:53:08;100662.31;;;21.58;74.69
4705;BME280;2366;51.332;6.610;2023-07-31T09:55:35;100669.56;;;21.66;73.78
4705;BME280;2366;51.332;6.610;2023-07-31T09:58:07;100661.47;;;21.74;75.29
4705;BME280;2366;51.332;6.610;2023-07-31T10:00:33;100655.06;;;21.91;75.65
4705;BME280;2366;51.332;6.610;2023-07-31T10:02:59;100662.81;;;21.94;74.64
4705;BME280;2366;51.332;6.610;2023-07-31T10:05:36;100662.00;;;21.78;74.55
4705;BME280;2366;51.332;6.610;2023-07-31T10:08:03;100662.34;;;21.91;74.37
4705;BME280;2366;51.332;6.610;2023-07-31T10:10:29;100654.41;;;21.73;74.52
4705;BME280;2366;51.332;6.610;2023-07-31T10:12:56;100666.72;;;21.67;74.52
4705;BME280;2366;51.332;6.610;2023-07-31T10:15:22;100660.97;;;21.79;75.30
4705;BME280;2366;51.332;6.610;2023-07-31T10:17:49;100657.28;;;21.80;74.33
4705;BME280;2366;51.332;6.610;2023-07-31T10:20:16;100664.00;;;21.92;75.67
4705;BME280;2366;51.332;6.610;2023-07-31T10:22:42;100658.09;;;21.97;74.52
4705;BME280;2366;51.332;6.610;2023-07-31T10:25:09;100666.69;;;21.92;73.48
4705;BME280;2366;51.332;6.610;2023-07-31T10:27:41;100659.44;;;22.09;74.74
4705;BME280;2366;51.332;6.610;2023-07-31T10:30:12;100659.25;;;22.35;72.55
4705;BME280;2366;51.332;6.610;2023-07-31T10:32:41;100657.53;;;22.50;73.48
4705;BME280;2366;51.332;6.610;2023-07-31T10:35:08;100658.69;;;22.64;72.63
4705;BME280;2366;51.332;6.610;2023-07-31T10:37:39;100659.84;;;22.62;71.43
4705;BME280;2366;51.332;6.610;2023-07-31T10:40:05;100647.63;;;22.82;71.39
4705;BME280;2366;51.332;6.610;2023-07-31T10:42:36;100650.34;;;22.82;71.79
4705;BME280;2366;51.332;6.610;2023-07-31T10:45:08;100656.44;;;23.15;70.40
4705;BME280;2366;51.332;6.610;2023-07-31T10:47:43;100654.41;;;23.17;69.26
4705;BME280;2366;51.332;6.610;2023-07-31T10:50:13;100651.28;;;23.29;68.97
4705;BME280;2366;51.332;6.610;2023-07-31T10:52:42;100646.56;;;22.91;67.65
4705;BME280;2366;51.332;6.610;2023-07-31T10:57:50;100648.28;;;22.45;70.57
4705;BME280;2366;51.332;6.610;2023-07-31T11:02:56;100645.03;;;22.58;71.60
4705;BME280;2366;51.332;6.610;2023-07-31T11:05:40;100642.47;;;22.64;70.74
4705;BME280;2366;51.332;6.610;2023-07-31T11:08:20;100641.81;;;22.62;70.54
4705;BME280;2366;51.332;6.610;2023-07-31T11:10:47;100644.25;;;22.88;68.80
4705;BME280;2366;51.332;6.610;2023-07-31T11:13:13;100645.91;;;22.89;68.12
4705;BME280;2366;51.332;6.610;2023-07-31T11:15:39;100641.28;;;22.67;69.44
4705;BME280;2366;51.332;6.610;2023-07-31T11:18:05;100646.31;;;22.70;69.53
4705;BME280;2366;51.332;6.610;2023-07-31T11:20:32;100642.63;;;22.71;70.34
4705;BME280;2366;51.332;6.610;2023-07-31T11:22:59;100648.94;;;22.94;70.15
4705;BME280;2366;51.332;6.610;2023-07-31T11:25:25;100645.03;;;22.97;69.28
4705;BME280;2366;51.332;6.610;2023-07-31T11:27:51;100643.03;;;22.91;69.52
4705;BME280;2366;51.332;6.610;2023-07-31T11:30:19;100641.34;;;22.90;69.11
4705;BME280;2366;51.332;6.610;2023-07-31T11:32:45;100638.50;;;22.83;69.62
4705;BME280;2366;51.332;6.610;2023-07-31T11:35:13;100647.19;;;23.10;68.92
4705;BME280;2366;51.332;6.610;2023-07-31T11:37:40;100635.53;;;23.09;67.85
4705;BME280;2366;51.332;6.610;2023-07-31T11:40:07;100643.16;;;22.97;68.26
4705;BME280;2366;51.332;6.610;2023-07-31T11:42:32;100633.97;;;23.15;68.23
4705;BME280;2366;51.332;6.610;2023-07-31T11:45:02;100636.72;;;23.07;68.34
4705;BME280;2366;51.332;6.610;2023-07-31T11:47:27;100633.44;;;22.88;69.11
4705;BME280;2366;51.332;6.610;2023-07-31T11:49:53;100630.19;;;22.93;69.69
4705;BME280;2366;51.332;6.610;2023-07-31T11:52:18;100628.16;;;23.03;68.92
4705;BME280;2366;51.332;6.610;2023-07-31T11:54:46;100628.63;;;22.98;68.75
4705;BME280;2366;51.332;6.610;2023-07-31T11:57:12;100632.66;;;23.11;68.47
4705;BME280;2366;51.332;6.610;2023-07-31T11:59:38;100635.16;;;23.21;68.29
4705;BME280;2366;51.332;6.610;2023-07-31T12:02:04;100628.88;;;23.20;67.92
4705;BME280;2366;51.332;6.610;2023-07-31T12:04:30;100631.94;;;23.17;67.55
4705;BME280;2366;51.332;6.610;2023-07-31T12:06:56;100625.56;;;23.10;67.54
4705;BME280;2366;51.332;6.610;2023-07-31T12:09:22;100625.09;;;23.06;67.68
4705;BME280;2366;51.332;6.610;2023-07-31T12:11:47;100619.56;;;22.91;67.83
4705;BME280;2366;51.332;6.610;2023-07-31T12:14:24;100623.97;;;22.84;68.43
4705;BME280;2366;51.332;6.610;2023-07-31T12:17:00;100614.69;;;22.87;68.32
4705;BME280;2366;51.332;6.610;2023-07-31T12:19:26;100621.38;;;22.99;67.58
4705;BME280;2366;51.332;6.610;2023-07-31T12:21:55;100618.84;;;23.06;68.02
4705;BME280;2366;51.332;6.610;2023-07-31T12:24:21;100622.47;;;22.82;67.76
4705;BME280;2366;51.332;6.610;2023-07-31T12:26:47;100609.66;;;22.75;67.15
4705;BME280;2366;51.332;6.610;2023-07-31T12:29:13;100614.50;;;22.88;69.28
4705;BME280;2366;51.332;6.610;2023-07-31T12:31:41;100612.56;;;22.66;68.82
4705;BME280;2366;51.332;6.610;2023-07-31T12:34:17;100608.91;;;22.59;69.72
4705;BME280;2366;51.332;6.610;2023-07-31T12:36:43;100612.25;;;22.69;69.50
4705;BME280;2366;51.332;6.610;2023-07-31T12:39:09;100617.34;;;22.95;69.44
4705;BME280;2366;51.332;6.610;2023-07-31T12:41:34;100605.19;;;22.91;68.52
4705;BME280;2366;51.332;6.610;2023-07-31T12:43:59;100601.47;;;22.92;69.86
4705;BME280;2366;51.332;6.610;2023-07-31T12:46:25;100593.44;;;22.84;69.50
4705;BME280;2366;51.332;6.610;2023-07-31T12:48:50;100604.44;;;22.74;69.41
4705;BME280;2366;51.332;6.610;2023-07-31T12:51:15;100604.53;;;22.89;69.95
4705;BME280;2366;51.332;6.610;2023-07-31T12:53:41;100608.16;;;23.12;68.88
4705;BME280;2366;51.332;6.610;2023-07-31T12:56:06;100593.06;;;23.41;68.27
4705;BME280;2366;51.332;6.610;2023-07-31T12:58:32;100578.22;;;23.37;67.94
4705;BME280;2366;51.332;6.610;2023-07-31T13:00:57;100578.22;;;23.37;67.10
4705;BME280;2366;51.332;6.610;2023-07-31T13:03:22;100570.72;;;23.24;67.53
4705;BME280;2366;51.332;6.610;2023-07-31T13:05:48;100564.81;;;23.44;68.18
4705;BME280;2366;51.332;6.610;2023-07-31T13:08:13;100558.78;;;23.56;67.48
4705;BME280;2366;51.332;6.610;2023-07-31T13:10:41;100567.75;;;23.80;66.88
4705;BME280;2366;51.332;6.610;2023-07-31T13:13:06;100562.16;;;23.82;64.58
4705;BME280;2366;51.332;6.610;2023-07-31T13:15:31;100561.44;;;23.65;66.67
4705;BME280;2366;51.332;6.610;2023-07-31T13:17:57;100546.94;;;23.43;67.96
4705;BME280;2366;51.332;6.610;2023-07-31T13:20:23;100542.91;;;23.38;68.51
4705;BME280;2366;51.332;6.610;2023-07-31T13:22:48;100539.69;;;23.58;67.30